Miccosukee, Florida
Current Conditions -  °F | °C
As of 4:53 PM on Thursday 23 Oct 2014 (Local Time) from KTLH Reporting Station
Few Clouds Few Clouds  
Wind Chill: 77°   Ceiling: Unl
Heat Index: 78°   Visibility: 10mi
Dew Point: 41°   Wind: 7mph
Humidity: 28%   Direction: 350°N
Pressure: 29.99"   Gusts: NA
Location:  30.59°N, 84.04°W
Report Text: KTLH 232053Z 35006KT 10SM FEW250 25/05 A2999 RMK AO2 SLP154 T02500050 56018 $
Loading
Personal Weather Stations






























Interactive Weather Map New forecast layout! Learn more

10-Day Weather Forecast

Advertisements
Track Severe Weather on mobile